createdAt,value
2017-10-02T00:00:08.380Z,0
2017-10-02T00:01:09.002Z,0
2017-10-02T00:02:09.605Z,0
2017-10-02T00:03:10.216Z,0
2017-10-02T00:04:10.927Z,0
2017-10-02T00:05:11.535Z,0
2017-10-02T00:06:12.145Z,0
2017-10-02T00:07:12.755Z,0
2017-10-02T00:08:13.394Z,0
2017-10-02T00:09:14.104Z,0
2017-10-02T00:10:14.716Z,0
2017-10-02T00:11:15.358Z,0
2017-10-02T00:12:15.967Z,0
2017-10-02T00:13:16.576Z,0
2017-10-02T00:14:17.291Z,0
2017-10-02T00:15:17.897Z,0
2017-10-02T00:16:18.511Z,0
2017-10-02T00:17:19.125Z,0
2017-10-02T00:18:19.732Z,0
2017-10-02T00:19:20.445Z,0
2017-10-02T00:20:21.082Z,0
2017-10-02T00:21:21.696Z,0
2017-10-02T00:22:22.303Z,0
2017-10-02T00:23:22.914Z,0
2017-10-02T00:24:23.623Z,0
2017-10-02T00:25:24.233Z,0
2017-10-02T00:26:24.843Z,0
2017-10-02T00:27:25.454Z,0
2017-10-02T00:28:26.061Z,0
2017-10-02T00:29:26.770Z,0
2017-10-02T00:30:27.379Z,0
2017-10-02T00:31:27.989Z,0
2017-10-02T00:32:28.604Z,0
2017-10-02T00:33:29.211Z,0
2017-10-02T00:34:29.921Z,0
2017-10-02T00:35:30.536Z,0
2017-10-02T00:36:31.150Z,0
2017-10-02T00:37:31.789Z,0
2017-10-02T00:38:32.397Z,0
2017-10-02T00:39:33.136Z,0
2017-10-02T00:40:33.748Z,0
2017-10-02T00:41:34.358Z,0
2017-10-02T00:42:34.969Z,0
2017-10-02T00:43:35.581Z,0
2017-10-02T00:44:36.327Z,0
2017-10-02T00:45:36.939Z,0
2017-10-02T00:46:37.547Z,0
2017-10-02T00:47:38.161Z,0
2017-10-02T00:48:38.767Z,0
2017-10-02T00:49:39.477Z,0
2017-10-02T00:50:40.086Z,0
2017-10-02T00:51:40.700Z,0
2017-10-02T00:52:41.310Z,0
2017-10-02T00:53:41.919Z,0
2017-10-02T00:54:42.626Z,0
2017-10-02T00:55:43.237Z,0
2017-10-02T00:56:43.860Z,0
2017-10-02T00:57:44.462Z,0
2017-10-02T00:58:45.071Z,0
2017-10-02T00:59:45.787Z,0
2017-10-02T01:00:46.395Z,0
2017-10-02T01:01:47.012Z,0
2017-10-02T01:02:47.625Z,0
2017-10-02T01:03:48.265Z,0
2017-10-02T01:04:48.982Z,0
2017-10-02T01:05:49.586Z,0
2017-10-02T01:06:50.196Z,0
2017-10-02T01:07:50.804Z,0
2017-10-02T01:08:51.413Z,0
2017-10-02T01:09:52.123Z,0
2017-10-02T01:10:52.733Z,0
2017-10-02T01:11:53.375Z,0
2017-10-02T01:12:53.984Z,0
2017-10-02T01:13:54.593Z,0
2017-10-02T01:14:55.309Z,0
2017-10-02T01:15:55.916Z,0
2017-10-02T01:16:56.555Z,0
2017-10-02T01:17:57.138Z,0
2017-10-02T01:18:57.778Z,0
2017-10-02T01:19:58.490Z,0
2017-10-02T01:20:59.100Z,0
2017-10-02T01:21:59.715Z,0
2017-10-02T01:23:00.324Z,0
2017-10-02T01:24:00.933Z,0
2017-10-02T01:25:01.643Z,0
2017-10-02T01:26:02.252Z,0
2017-10-02T01:27:02.864Z,0
2017-10-02T01:28:03.468Z,0
2017-10-02T01:29:04.078Z,0
2017-10-02T01:30:04.787Z,0
2017-10-02T01:31:05.396Z,0
2017-10-02T01:32:06.008Z,0
2017-10-02T01:33:06.618Z,0
2017-10-02T01:34:07.233Z,0
2017-10-02T01:35:07.975Z,0
2017-10-02T01:36:08.587Z,0
2017-10-02T01:37:09.195Z,0
2017-10-02T01:38:09.804Z,0
2017-10-02T01:39:10.413Z,0
2017-10-02T01:40:11.152Z,0
2017-10-02T01:41:11.763Z,0
2017-10-02T01:42:12.372Z,0
2017-10-02T01:43:12.984Z,0
2017-10-02T01:44:13.624Z,0
2017-10-02T01:45:14.334Z,0
2017-10-02T01:46:14.973Z,0
2017-10-02T01:47:15.587Z,0
2017-10-02T01:48:16.194Z,0
2017-10-02T01:49:16.805Z,0
2017-10-02T01:50:17.514Z,0
2017-10-02T01:51:18.129Z,0
2017-10-02T01:52:18.736Z,0
2017-10-02T01:53:19.353Z,0
2017-10-02T01:54:19.959Z,0
2017-10-02T01:55:20.676Z,0
2017-10-02T01:56:21.279Z,0
2017-10-02T01:57:21.921Z,0
2017-10-02T01:58:22.534Z,0
2017-10-02T01:59:23.139Z,0
2017-10-02T02:00:23.853Z,0
2017-10-02T02:01:24.460Z,0
2017-10-02T02:02:25.074Z,0
2017-10-02T02:03:25.680Z,0
2017-10-02T02:04:26.320Z,0
2017-10-02T02:05:27.027Z,0
2017-10-02T02:06:27.636Z,0
2017-10-02T02:07:28.244Z,0
2017-10-02T02:08:28.869Z,0
2017-10-02T02:09:29.467Z,0
2017-10-02T02:10:30.176Z,0
2017-10-02T02:11:30.785Z,0
2017-10-02T02:12:31.429Z,0
2017-10-02T02:13:32.041Z,0
2017-10-02T02:14:32.647Z,0
2017-10-02T02:15:33.363Z,0
2017-10-02T02:16:33.977Z,0
2017-10-02T02:17:34.585Z,0
2017-10-02T02:18:35.231Z,0
2017-10-02T02:19:35.845Z,0
2017-10-02T02:20:36.586Z,0
2017-10-02T02:21:37.195Z,0
2017-10-02T02:22:37.803Z,0
2017-10-02T02:23:38.411Z,0
2017-10-02T02:24:39.021Z,0
2017-10-02T02:25:39.729Z,0
2017-10-02T02:26:40.345Z,0
2017-10-02T02:27:40.957Z,0
2017-10-02T02:28:41.569Z,0
2017-10-02T02:29:42.182Z,0
2017-10-02T02:30:42.925Z,0
2017-10-02T02:31:43.534Z,0
2017-10-02T02:32:44.146Z,0
2017-10-02T02:33:44.762Z,0
2017-10-02T02:34:45.366Z,0
2017-10-02T02:35:46.081Z,0
2017-10-02T02:36:46.720Z,0
2017-10-02T02:37:47.333Z,0
2017-10-02T02:38:47.972Z,0
2017-10-02T02:39:48.583Z,0
2017-10-02T02:40:49.297Z,0
2017-10-02T02:41:49.906Z,0
2017-10-02T02:42:50.545Z,0
2017-10-02T02:43:51.158Z,0
2017-10-02T02:44:51.774Z,0
2017-10-02T02:45:52.480Z,0
2017-10-02T02:46:53.089Z,0
2017-10-02T02:47:53.698Z,0
2017-10-02T02:48:54.311Z,0
2017-10-02T02:49:54.920Z,0
2017-10-02T02:50:55.632Z,0
2017-10-02T02:51:56.247Z,0
2017-10-02T02:52:56.858Z,0
2017-10-02T02:53:57.465Z,0
2017-10-02T02:54:58.079Z,0
2017-10-02T02:55:58.936Z,0
2017-10-02T02:56:59.545Z,0
2017-10-02T02:58:00.155Z,0
2017-10-02T02:59:00.773Z,0
2017-10-02T03:00:01.385Z,0
2017-10-02T03:01:02.091Z,0
2017-10-02T03:02:02.703Z,0
2017-10-02T03:03:03.310Z,0
2017-10-02T03:04:03.920Z,0
2017-10-02T03:05:04.529Z,0
2017-10-02T03:06:05.245Z,0
2017-10-02T03:07:05.851Z,0
2017-10-02T03:08:06.460Z,0
2017-10-02T03:09:07.069Z,0
2017-10-02T03:10:07.678Z,0
2017-10-02T03:11:08.387Z,0
2017-10-02T03:12:09.004Z,0
2017-10-02T03:13:09.610Z,0
2017-10-02T03:14:10.219Z,0
2017-10-02T03:15:10.828Z,0
2017-10-02T03:16:11.541Z,0
2017-10-02T03:17:12.159Z,0
2017-10-02T03:18:12.766Z,0
2017-10-02T03:19:13.375Z,0
2017-10-02T03:20:13.984Z,0
2017-10-02T03:21:14.693Z,0
2017-10-02T03:22:15.301Z,0
2017-10-02T03:23:15.911Z,0
2017-10-02T03:24:16.549Z,0
2017-10-02T03:25:17.162Z,0
2017-10-02T03:26:17.868Z,0
2017-10-02T03:27:18.480Z,0
2017-10-02T03:28:19.088Z,0
2017-10-02T03:29:19.697Z,0
2017-10-02T03:30:20.312Z,0
2017-10-02T03:31:21.052Z,0
2017-10-02T03:32:21.663Z,0
2017-10-02T03:33:22.269Z,0
2017-10-02T03:34:22.882Z,0
2017-10-02T03:35:23.518Z,0
2017-10-02T03:36:24.226Z,0
2017-10-02T03:37:24.837Z,0
2017-10-02T03:38:25.448Z,0
2017-10-02T03:39:26.064Z,0
2017-10-02T03:40:26.669Z,0
2017-10-02T03:41:27.379Z,0
2017-10-02T03:42:27.987Z,0
2017-10-02T03:43:28.600Z,0
2017-10-02T03:44:29.241Z,0
2017-10-02T03:45:29.881Z,0
2017-10-02T03:46:30.601Z,0
2017-10-02T03:47:31.216Z,0
2017-10-02T03:48:31.822Z,0
2017-10-02T03:49:32.432Z,0
2017-10-02T03:50:33.042Z,0
2017-10-02T03:51:33.752Z,0
2017-10-02T03:52:34.363Z,0
2017-10-02T03:53:34.973Z,0
2017-10-02T03:54:35.581Z,0
2017-10-02T03:55:36.189Z,0
2017-10-02T03:56:36.898Z,0
2017-10-02T03:57:37.507Z,0
2017-10-02T03:58:38.116Z,0
2017-10-02T03:59:38.725Z,0
2017-10-02T04:00:39.339Z,0
2017-10-02T04:01:40.052Z,0
2017-10-02T04:02:40.660Z,0
2017-10-02T04:03:41.304Z,0
2017-10-02T04:04:41.911Z,0
2017-10-02T04:05:42.527Z,0
2017-10-02T04:06:43.239Z,0
2017-10-02T04:07:43.852Z,0
2017-10-02T04:08:44.459Z,0
2017-10-02T04:09:45.073Z,0
2017-10-02T04:10:45.679Z,0
2017-10-02T04:11:46.396Z,0
2017-10-02T04:12:47.002Z,0
2017-10-02T04:13:47.619Z,0
2017-10-02T04:14:48.225Z,0
2017-10-02T04:15:48.833Z,0
2017-10-02T04:16:49.543Z,0
2017-10-02T04:17:50.159Z,0
2017-10-02T04:18:50.766Z,0
2017-10-02T04:19:51.409Z,0
2017-10-02T04:20:52.015Z,0
2017-10-02T04:21:52.725Z,0
2017-10-02T04:22:53.341Z,0
2017-10-02T04:23:53.952Z,0
2017-10-02T04:24:54.565Z,0
2017-10-02T04:25:55.170Z,0
2017-10-02T04:26:55.882Z,0
2017-10-02T04:27:56.495Z,0
2017-10-02T04:28:57.100Z,0
2017-10-02T04:29:57.711Z,0
2017-10-02T04:30:58.351Z,0
2017-10-02T04:31:59.062Z,0
2017-10-02T04:32:59.670Z,0
2017-10-02T04:34:00.280Z,0
2017-10-02T04:35:00.888Z,0
2017-10-02T04:36:01.503Z,0
2017-10-02T04:37:02.216Z,0
2017-10-02T04:38:02.824Z,0
2017-10-02T04:39:03.473Z,0
2017-10-02T04:40:04.080Z,0
2017-10-02T04:41:04.687Z,0
2017-10-02T04:42:05.395Z,0
2017-10-02T04:43:06.005Z,0
2017-10-02T04:44:06.617Z,0
2017-10-02T04:45:07.226Z,0
2017-10-02T04:46:07.841Z,0
2017-10-02T04:47:08.548Z,0
2017-10-02T04:48:09.158Z,0
2017-10-02T04:49:09.773Z,0
2017-10-02T04:50:10.381Z,0
2017-10-02T04:51:10.991Z,0
2017-10-02T04:52:11.699Z,0
2017-10-02T04:53:12.310Z,0
2017-10-02T04:54:12.918Z,0
2017-10-02T04:55:13.526Z,0
2017-10-02T04:56:14.135Z,0
2017-10-02T04:57:14.850Z,0
2017-10-02T04:58:15.457Z,0
2017-10-02T04:59:16.067Z,0
2017-10-02T05:00:16.677Z,0
2017-10-02T05:01:17.288Z,0
2017-10-02T05:02:18.001Z,0
2017-10-02T05:03:18.610Z,0
2017-10-02T05:04:19.220Z,0
2017-10-02T05:05:19.829Z,0
2017-10-02T05:06:20.476Z,0
2017-10-02T05:07:21.180Z,0
2017-10-02T05:08:21.789Z,0
2017-10-02T05:09:22.397Z,0
2017-10-02T05:10:23.007Z,0
2017-10-02T05:11:23.616Z,0
2017-10-02T05:12:24.333Z,0
2017-10-02T05:13:24.946Z,0
2017-10-02T05:14:25.553Z,0
2017-10-02T05:15:26.167Z,0
2017-10-02T05:16:26.773Z,0
2017-10-02T05:17:27.486Z,0
2017-10-02T05:18:28.094Z,0
2017-10-02T05:19:28.704Z,0
2017-10-02T05:20:29.312Z,4
2017-10-02T05:21:29.928Z,0
2017-10-02T05:22:30.667Z,0
2017-10-02T05:23:31.278Z,4
2017-10-02T05:24:31.884Z,0
2017-10-02T05:25:32.499Z,4
2017-10-02T05:26:33.100Z,0
2017-10-02T05:27:33.810Z,4
2017-10-02T05:28:34.425Z,4
2017-10-02T05:29:35.032Z,0
2017-10-02T05:30:35.647Z,4
2017-10-02T05:31:36.252Z,4
2017-10-02T05:32:36.961Z,4
2017-10-02T05:33:37.572Z,4
2017-10-02T05:34:38.213Z,4
2017-10-02T05:35:38.823Z,4
2017-10-02T05:36:39.434Z,8
2017-10-02T05:37:40.146Z,4
2017-10-02T05:38:40.755Z,4
2017-10-02T05:39:41.369Z,8
2017-10-02T05:40:41.975Z,4
2017-10-02T05:41:42.584Z,8
2017-10-02T05:42:43.300Z,4
2017-10-02T05:43:43.905Z,4
2017-10-02T05:44:44.516Z,8
2017-10-02T05:45:45.124Z,8
2017-10-02T05:46:45.732Z,8
2017-10-02T05:47:46.447Z,8
2017-10-02T05:48:47.060Z,8
2017-10-02T05:49:47.671Z,8
2017-10-02T05:50:48.312Z,8
2017-10-02T05:51:48.956Z,12
2017-10-02T05:52:49.667Z,12
2017-10-02T05:53:50.307Z,16
2017-10-02T05:54:50.916Z,16
2017-10-02T05:55:51.527Z,16
2017-10-02T05:56:52.138Z,16
2017-10-02T05:57:52.848Z,20
2017-10-02T05:58:53.459Z,20
2017-10-02T05:59:54.071Z,20
2017-10-02T06:00:54.680Z,20
2017-10-02T06:01:55.291Z,24
2017-10-02T06:02:56.004Z,24
2017-10-02T06:03:56.621Z,24
2017-10-02T06:04:57.231Z,24
2017-10-02T06:05:57.841Z,28
2017-10-02T06:06:58.450Z,28
2017-10-02T06:07:59.161Z,24
2017-10-02T06:08:59.773Z,24
2017-10-02T06:10:00.394Z,24
2017-10-02T06:11:01.001Z,28
2017-10-02T06:12:01.613Z,28
2017-10-02T06:13:02.351Z,36
2017-10-02T06:14:02.964Z,36
2017-10-02T06:15:03.579Z,40
2017-10-02T06:16:04.186Z,44
2017-10-02T06:17:04.796Z,48
2017-10-02T06:18:05.509Z,48
2017-10-02T06:19:06.120Z,44
2017-10-02T06:20:06.733Z,48
2017-10-02T06:21:07.369Z,48
2017-10-02T06:22:07.980Z,52
2017-10-02T06:23:08.696Z,52
2017-10-02T06:24:09.312Z,52
2017-10-02T06:25:09.925Z,48
2017-10-02T06:26:10.568Z,48
2017-10-02T06:27:11.177Z,48
2017-10-02T06:28:12.093Z,48
2017-10-02T06:29:12.708Z,44
2017-10-02T06:30:13.319Z,48
2017-10-02T06:31:13.928Z,48
2017-10-02T06:32:14.539Z,44
2017-10-02T06:33:15.256Z,48
2017-10-02T06:34:15.870Z,48
2017-10-02T06:35:16.480Z,48
2017-10-02T06:36:17.096Z,52
2017-10-02T06:37:17.709Z,52
2017-10-02T06:38:18.425Z,52
2017-10-02T06:39:19.035Z,48
2017-10-02T06:40:19.644Z,44
2017-10-02T06:41:20.256Z,44
2017-10-02T06:42:20.873Z,44
2017-10-02T06:43:21.588Z,44
2017-10-02T06:44:22.197Z,40
2017-10-02T06:45:22.808Z,40
2017-10-02T06:46:23.420Z,40
2017-10-02T06:47:24.031Z,40
2017-10-02T06:48:24.743Z,40
2017-10-02T06:49:25.361Z,40
2017-10-02T06:50:25.973Z,40
2017-10-02T06:51:26.587Z,44
2017-10-02T06:52:27.199Z,44
2017-10-02T06:53:27.910Z,44
2017-10-02T06:54:28.525Z,44
2017-10-02T06:55:29.135Z,48
2017-10-02T06:56:29.748Z,48
2017-10-02T06:57:30.361Z,52
2017-10-02T06:58:31.073Z,48
2017-10-02T06:59:31.684Z,52
2017-10-02T07:00:32.297Z,52
2017-10-02T07:01:32.910Z,48
2017-10-02T07:02:33.552Z,52
2017-10-02T07:03:34.266Z,48
2017-10-02T07:04:34.884Z,48
2017-10-02T07:05:35.493Z,44
2017-10-02T07:06:36.106Z,44
2017-10-02T07:07:36.717Z,40
2017-10-02T07:08:37.436Z,40
2017-10-02T07:09:38.051Z,40
2017-10-02T07:10:38.695Z,40
2017-10-02T07:11:39.331Z,40
2017-10-02T07:12:39.943Z,36
2017-10-02T07:13:40.657Z,40
2017-10-02T07:14:41.267Z,40
2017-10-02T07:15:41.886Z,40
2017-10-02T07:16:42.496Z,40
2017-10-02T07:17:43.138Z,44
2017-10-02T07:18:43.854Z,40
2017-10-02T07:19:44.464Z,40
2017-10-02T07:20:45.110Z,40
2017-10-02T07:21:45.747Z,40
2017-10-02T07:22:46.366Z,36
2017-10-02T07:23:47.075Z,36
2017-10-02T07:24:47.690Z,32
2017-10-02T07:25:48.301Z,36
2017-10-02T07:26:48.917Z,32
2017-10-02T07:27:49.527Z,32
2017-10-02T07:28:50.451Z,32
2017-10-02T07:29:51.056Z,28
2017-10-02T07:30:51.671Z,32
2017-10-02T07:31:52.280Z,28
2017-10-02T07:32:52.889Z,32
2017-10-02T07:33:53.801Z,32
2017-10-02T07:34:54.414Z,32
2017-10-02T07:35:55.026Z,32
2017-10-02T07:36:55.670Z,32
2017-10-02T07:37:56.282Z,28
2017-10-02T07:38:57.199Z,32
2017-10-02T07:39:57.810Z,32
2017-10-02T07:40:58.429Z,32
2017-10-02T07:41:59.071Z,36
2017-10-02T07:42:59.685Z,36
2017-10-02T07:44:00.429Z,36
2017-10-02T07:45:01.041Z,36
2017-10-02T07:46:01.652Z,36
2017-10-02T07:47:02.263Z,36
2017-10-02T07:48:02.911Z,36
2017-10-02T07:49:03.807Z,36
2017-10-02T07:50:04.419Z,36
2017-10-02T07:51:05.029Z,36
2017-10-02T07:52:05.641Z,40
2017-10-02T07:53:06.258Z,40
2017-10-02T07:54:07.118Z,40
2017-10-02T07:55:07.738Z,40
2017-10-02T07:56:08.352Z,44
2017-10-02T07:57:08.962Z,48
2017-10-02T07:58:09.606Z,52
2017-10-02T07:59:10.473Z,56
2017-10-02T08:00:11.087Z,56
2017-10-02T08:01:11.704Z,60
2017-10-02T08:02:12.310Z,60
2017-10-02T08:03:12.922Z,64
2017-10-02T08:04:13.634Z,64
2017-10-02T08:05:14.250Z,64
2017-10-02T08:06:14.889Z,64
2017-10-02T08:07:15.506Z,60
2017-10-02T08:08:16.117Z,60
2017-10-02T08:09:17.029Z,56
2017-10-02T08:10:17.643Z,52
2017-10-02T08:11:18.254Z,56
2017-10-02T08:12:18.869Z,52
2017-10-02T08:13:19.483Z,52
2017-10-02T08:14:20.195Z,52
2017-10-02T08:15:20.807Z,52
2017-10-02T08:16:21.419Z,56
2017-10-02T08:17:22.031Z,52
2017-10-02T08:18:22.646Z,56
2017-10-02T08:19:23.564Z,56
2017-10-02T08:20:24.174Z,56
2017-10-02T08:21:24.787Z,56
2017-10-02T08:22:25.404Z,56
2017-10-02T08:23:26.018Z,60
2017-10-02T08:24:26.885Z,60
2017-10-02T08:25:27.530Z,64
2017-10-02T08:26:28.148Z,64
2017-10-02T08:27:28.764Z,68
2017-10-02T08:28:29.371Z,68
2017-10-02T08:29:30.090Z,72
2017-10-02T08:30:30.702Z,76
2017-10-02T08:31:31.314Z,80
2017-10-02T08:32:31.926Z,80
2017-10-02T08:33:32.539Z,84
2017-10-02T08:34:33.279Z,84
2017-10-02T08:35:33.896Z,84
2017-10-02T08:36:34.505Z,84
2017-10-02T08:37:35.119Z,84
2017-10-02T08:38:35.732Z,88
2017-10-02T08:39:36.445Z,88
2017-10-02T08:40:37.057Z,92
2017-10-02T08:41:37.670Z,92
2017-10-02T08:42:38.288Z,88
2017-10-02T08:43:38.904Z,84
2017-10-02T08:44:39.615Z,80
2017-10-02T08:45:40.228Z,72
2017-10-02T08:46:40.838Z,68
2017-10-02T08:47:41.452Z,68
2017-10-02T08:48:42.065Z,68
2017-10-02T08:49:42.777Z,64
2017-10-02T08:50:43.389Z,64
2017-10-02T08:51:44.001Z,60
2017-10-02T08:52:44.615Z,64
2017-10-02T08:53:45.229Z,68
2017-10-02T08:54:45.946Z,64
2017-10-02T08:55:46.560Z,68
2017-10-02T08:56:47.210Z,68
2017-10-02T08:57:47.828Z,68
2017-10-02T08:58:48.441Z,72
2017-10-02T08:59:49.152Z,72
2017-10-02T09:00:49.768Z,80
2017-10-02T09:01:50.380Z,80
2017-10-02T09:02:50.995Z,84
2017-10-02T09:03:51.640Z,80
2017-10-02T09:04:52.351Z,76
2017-10-02T09:05:52.964Z,76
2017-10-02T09:06:53.576Z,80
2017-10-02T09:07:54.194Z,80
2017-10-02T09:08:54.803Z,80
2017-10-02T09:09:55.516Z,84
2017-10-02T09:10:56.133Z,80
2017-10-02T09:11:56.742Z,84
2017-10-02T09:12:57.360Z,84
2017-10-02T09:13:57.981Z,80
2017-10-02T09:14:58.700Z,80
2017-10-02T09:15:59.308Z,80
2017-10-02T09:16:59.916Z,84
2017-10-02T09:18:00.529Z,80
2017-10-02T09:19:01.142Z,84
2017-10-02T09:20:01.854Z,84
2017-10-02T09:21:02.495Z,80
2017-10-02T09:22:03.107Z,80
2017-10-02T09:23:03.720Z,80
2017-10-02T09:24:04.336Z,84
2017-10-02T09:25:05.048Z,80
2017-10-02T09:26:05.661Z,80
2017-10-02T09:27:06.300Z,80
2017-10-02T09:28:06.913Z,80
2017-10-02T09:29:07.533Z,76
2017-10-02T09:30:08.238Z,80
2017-10-02T09:31:08.852Z,84
2017-10-02T09:32:09.466Z,84
2017-10-02T09:33:10.085Z,88
2017-10-02T09:34:10.697Z,92
2017-10-02T09:35:11.413Z,92
2017-10-02T09:36:12.024Z,100
2017-10-02T09:37:12.640Z,100
2017-10-02T09:38:13.256Z,104
2017-10-02T09:39:13.871Z,108
2017-10-02T09:40:14.585Z,116
2017-10-02T09:41:15.202Z,124
2017-10-02T09:42:15.816Z,136
2017-10-02T09:43:16.431Z,144
2017-10-02T09:44:17.048Z,148
2017-10-02T09:45:17.763Z,148
2017-10-02T09:46:18.382Z,152
2017-10-02T09:47:19.001Z,160
2017-10-02T09:48:19.618Z,164
2017-10-02T09:49:20.230Z,168
2017-10-02T09:50:20.944Z,168
2017-10-02T09:51:21.560Z,168
2017-10-02T09:52:22.179Z,168
2017-10-02T09:53:22.797Z,168
2017-10-02T09:54:23.411Z,168
2017-10-02T09:55:24.121Z,168
2017-10-02T09:56:24.737Z,164
2017-10-02T09:57:25.351Z,160
2017-10-02T09:58:25.966Z,160
2017-10-02T09:59:26.581Z,156
2017-10-02T10:00:27.329Z,160
2017-10-02T10:01:27.946Z,156
2017-10-02T10:02:28.588Z,160
2017-10-02T10:03:29.203Z,160
2017-10-02T10:04:29.816Z,160
2017-10-02T10:05:30.530Z,164
2017-10-02T10:06:31.147Z,180
2017-10-02T10:07:31.763Z,188
2017-10-02T10:08:32.381Z,196
2017-10-02T10:09:33.025Z,200
2017-10-02T10:10:33.738Z,196
2017-10-02T10:11:34.354Z,188
2017-10-02T10:12:34.967Z,180
2017-10-02T10:13:35.582Z,180
2017-10-02T10:14:36.196Z,184
2017-10-02T10:15:36.911Z,192
2017-10-02T10:16:37.531Z,200
2017-10-02T10:17:38.141Z,204
2017-10-02T10:18:38.755Z,204
2017-10-02T10:19:39.370Z,196
2017-10-02T10:20:40.092Z,196
2017-10-02T10:21:40.703Z,196
2017-10-02T10:22:41.322Z,204
2017-10-02T10:23:41.968Z,212
2017-10-02T10:24:42.583Z,220
2017-10-02T10:25:43.333Z,220
2017-10-02T10:26:43.944Z,224
2017-10-02T10:27:44.559Z,228
2017-10-02T10:28:45.171Z,232
2017-10-02T10:29:45.788Z,240
2017-10-02T10:30:46.513Z,244
2017-10-02T10:31:47.155Z,244
2017-10-02T10:32:47.766Z,236
2017-10-02T10:33:48.381Z,236
2017-10-02T10:34:48.998Z,228
2017-10-02T10:35:49.716Z,228
2017-10-02T10:36:50.326Z,236
2017-10-02T10:37:50.946Z,236
2017-10-02T10:38:51.560Z,244
2017-10-02T10:39:52.175Z,248
2017-10-02T10:40:52.895Z,248
2017-10-02T10:41:53.508Z,244
2017-10-02T10:42:54.124Z,244
2017-10-02T10:43:54.738Z,240
2017-10-02T10:44:55.383Z,248
2017-10-02T10:45:56.098Z,264
2017-10-02T10:46:56.720Z,288
2017-10-02T10:47:57.332Z,312
2017-10-02T10:48:57.952Z,340
2017-10-02T10:49:58.597Z,352
2017-10-02T10:50:59.353Z,352
2017-10-02T10:51:59.958Z,348
2017-10-02T10:53:00.573Z,332
2017-10-02T10:54:01.189Z,308
2017-10-02T10:55:01.805Z,300
2017-10-02T10:56:02.522Z,288
2017-10-02T10:57:03.137Z,272
2017-10-02T10:58:03.756Z,264
2017-10-02T10:59:04.370Z,268
2017-10-02T11:00:04.990Z,296
2017-10-02T11:01:05.904Z,324
2017-10-02T11:02:06.520Z,388
2017-10-02T11:03:07.140Z,400
2017-10-02T11:04:07.757Z,408
2017-10-02T11:05:08.370Z,384
2017-10-02T11:06:09.290Z,384
2017-10-02T11:07:09.901Z,344
2017-10-02T11:08:10.517Z,304
2017-10-02T11:09:11.132Z,280
2017-10-02T11:10:11.747Z,260
2017-10-02T11:11:12.492Z,244
2017-10-02T11:12:13.114Z,232
2017-10-02T11:13:13.726Z,228
2017-10-02T11:14:14.349Z,224
2017-10-02T11:15:14.965Z,224
2017-10-02T11:16:15.678Z,220
2017-10-02T11:17:16.294Z,208
2017-10-02T11:18:16.914Z,200
2017-10-02T11:19:17.526Z,196
2017-10-02T11:20:18.148Z,196
2017-10-02T11:21:18.866Z,192
2017-10-02T11:22:19.479Z,180
2017-10-02T11:23:20.093Z,176
2017-10-02T11:24:20.713Z,168
2017-10-02T11:25:21.323Z,164
2017-10-02T11:26:22.037Z,160
2017-10-02T11:27:22.654Z,156
2017-10-02T11:28:23.269Z,156
2017-10-02T11:29:23.883Z,164
2017-10-02T11:30:24.498Z,168
2017-10-02T11:31:25.217Z,168
2017-10-02T11:32:25.832Z,168
2017-10-02T11:33:26.445Z,160
2017-10-02T11:34:27.060Z,148
2017-10-02T11:35:27.675Z,140
2017-10-02T11:36:28.392Z,140
2017-10-02T11:37:29.007Z,140
2017-10-02T11:38:29.657Z,140
2017-10-02T11:39:30.265Z,144
2017-10-02T11:40:30.909Z,144
2017-10-02T11:41:31.629Z,144
2017-10-02T11:42:32.239Z,140
2017-10-02T11:43:32.885Z,144
2017-10-02T11:44:33.503Z,152
2017-10-02T11:45:34.120Z,156
2017-10-02T11:46:34.838Z,164
2017-10-02T11:47:35.450Z,168
2017-10-02T11:48:36.067Z,176
2017-10-02T11:49:36.713Z,176
2017-10-02T11:50:37.331Z,184
2017-10-02T11:51:38.042Z,192
2017-10-02T11:52:38.662Z,200
2017-10-02T11:53:39.275Z,212
2017-10-02T11:54:39.888Z,232
2017-10-02T11:55:40.503Z,268
2017-10-02T11:56:41.421Z,296
2017-10-02T11:57:42.067Z,324
2017-10-02T11:58:42.682Z,348
2017-10-02T11:59:43.327Z,368
2017-10-02T12:00:43.943Z,376
2017-10-02T12:01:44.658Z,340
2017-10-02T12:02:45.275Z,272
2017-10-02T12:03:45.888Z,236
2017-10-02T12:04:46.504Z,220
2017-10-02T12:05:47.119Z,216
2017-10-02T12:06:47.838Z,216
2017-10-02T12:07:48.450Z,232
2017-10-02T12:08:49.070Z,248
2017-10-02T12:09:49.686Z,248
2017-10-02T12:10:50.328Z,240
2017-10-02T12:11:51.050Z,220
2017-10-02T12:12:51.663Z,208
2017-10-02T12:13:52.278Z,200
2017-10-02T12:14:52.898Z,200
2017-10-02T12:15:53.520Z,212
2017-10-02T12:16:54.434Z,220
2017-10-02T12:17:55.049Z,216
2017-10-02T12:18:55.665Z,208
2017-10-02T12:19:56.284Z,212
2017-10-02T12:20:56.923Z,216
2017-10-02T12:21:57.638Z,232
2017-10-02T12:22:58.252Z,252
2017-10-02T12:23:58.867Z,268
2017-10-02T12:24:59.488Z,288
2017-10-02T12:26:00.098Z,308
2017-10-02T12:27:01.016Z,336
2017-10-02T12:28:01.666Z,400
2017-10-02T12:29:02.286Z,432
2017-10-02T12:30:02.911Z,504
2017-10-02T12:31:03.541Z,476
2017-10-02T12:32:04.256Z,464
2017-10-02T12:33:04.871Z,472
2017-10-02T12:34:05.487Z,336
2017-10-02T12:35:06.108Z,292
2017-10-02T12:36:06.720Z,280
2017-10-02T12:37:07.434Z,288
2017-10-02T12:38:08.049Z,264
2017-10-02T12:39:08.664Z,240
2017-10-02T12:40:09.280Z,216
2017-10-02T12:41:09.899Z,192
2017-10-02T12:42:10.611Z,184
2017-10-02T12:43:11.226Z,184
2017-10-02T12:44:11.846Z,188
2017-10-02T12:45:12.465Z,208
2017-10-02T12:46:13.079Z,236
2017-10-02T12:47:13.792Z,236
2017-10-02T12:48:14.409Z,236
2017-10-02T12:49:15.025Z,232
2017-10-02T12:50:15.640Z,232
2017-10-02T12:51:16.261Z,212
2017-10-02T12:52:17.122Z,184
2017-10-02T12:53:17.738Z,168
2017-10-02T12:54:18.387Z,176
2017-10-02T12:55:18.999Z,204
2017-10-02T12:56:19.613Z,228
2017-10-02T12:57:20.487Z,240
2017-10-02T12:58:21.097Z,252
2017-10-02T12:59:21.712Z,260
2017-10-02T13:00:22.326Z,268
2017-10-02T13:01:22.948Z,280
2017-10-02T13:02:23.860Z,304
2017-10-02T13:03:24.476Z,320
2017-10-02T13:04:25.093Z,304
2017-10-02T13:05:25.713Z,272
2017-10-02T13:06:26.328Z,260
2017-10-02T13:07:27.040Z,252
2017-10-02T13:08:27.656Z,248
2017-10-02T13:09:28.269Z,236
2017-10-02T13:10:28.883Z,236
2017-10-02T13:11:29.497Z,224
2017-10-02T13:12:30.213Z,212
2017-10-02T13:13:30.830Z,200
2017-10-02T13:14:31.445Z,196
2017-10-02T13:15:32.061Z,192
2017-10-02T13:16:32.677Z,188
2017-10-02T13:17:33.394Z,192
2017-10-02T13:18:34.010Z,204
2017-10-02T13:19:34.624Z,224
2017-10-02T13:20:35.240Z,244
2017-10-02T13:21:35.855Z,232
2017-10-02T13:22:36.603Z,224
2017-10-02T13:23:37.216Z,212
2017-10-02T13:24:37.830Z,204
2017-10-02T13:25:38.447Z,204
2017-10-02T13:26:39.062Z,208
2017-10-02T13:27:39.778Z,216
2017-10-02T13:28:40.399Z,204
2017-10-02T13:29:41.045Z,192
2017-10-02T13:30:41.662Z,196
2017-10-02T13:31:42.279Z,196
2017-10-02T13:32:42.997Z,204
2017-10-02T13:33:43.611Z,208
2017-10-02T13:34:44.258Z,212
2017-10-02T13:35:44.880Z,212
2017-10-02T13:36:45.492Z,220
2017-10-02T13:37:46.207Z,212
2017-10-02T13:38:46.825Z,196
2017-10-02T13:39:47.445Z,188
2017-10-02T13:40:48.090Z,188
2017-10-02T13:41:48.705Z,192
2017-10-02T13:42:49.423Z,196
2017-10-02T13:43:50.037Z,200
2017-10-02T13:44:50.684Z,208
2017-10-02T13:45:51.299Z,216
2017-10-02T13:46:51.914Z,220
2017-10-02T13:47:52.636Z,228
2017-10-02T13:48:53.250Z,244
2017-10-02T13:49:53.870Z,248
2017-10-02T13:50:54.485Z,252
2017-10-02T13:51:55.103Z,244
2017-10-02T13:52:55.849Z,240
2017-10-02T13:53:56.464Z,236
2017-10-02T13:54:57.082Z,232
2017-10-02T13:55:57.732Z,216
2017-10-02T13:56:58.346Z,208
2017-10-02T13:57:59.065Z,188
2017-10-02T13:58:59.685Z,180
2017-10-02T14:00:00.297Z,188
2017-10-02T14:01:00.910Z,184
2017-10-02T14:02:01.524Z,184
2017-10-02T14:03:02.240Z,176
2017-10-02T14:04:02.855Z,156
2017-10-02T14:05:03.471Z,144
2017-10-02T14:06:04.087Z,140
2017-10-02T14:07:04.702Z,136
2017-10-02T14:08:05.421Z,136
2017-10-02T14:09:06.036Z,136
2017-10-02T14:10:06.655Z,132
2017-10-02T14:11:07.278Z,124
2017-10-02T14:12:07.886Z,116
2017-10-02T14:13:08.601Z,112
2017-10-02T14:14:09.214Z,100
2017-10-02T14:15:09.830Z,92
2017-10-02T14:16:10.445Z,88
2017-10-02T14:17:11.062Z,88
2017-10-02T14:18:11.777Z,88
2017-10-02T14:19:12.394Z,88
2017-10-02T14:20:13.008Z,92
2017-10-02T14:21:13.621Z,96
2017-10-02T14:22:14.235Z,100
2017-10-02T14:23:14.949Z,100
2017-10-02T14:24:15.571Z,100
2017-10-02T14:25:16.181Z,100
2017-10-02T14:26:16.796Z,100